createdAt,value
2019-05-07T00:00:45.759Z,0
2019-05-07T00:01:58.929Z,0
2019-05-07T00:03:29.044Z,0
2019-05-07T00:08:00.980Z,0
2019-05-07T00:09:31.505Z,0
2019-05-07T00:12:32.527Z,0
2019-05-07T00:14:03.038Z,0
2019-05-07T00:15:33.542Z,0
2019-05-07T00:16:46.074Z,0
2019-05-07T00:17:59.749Z,0
2019-05-07T00:19:30.274Z,0
2019-05-07T00:21:00.778Z,0
2019-05-07T00:22:31.294Z,0
2019-05-07T00:24:01.800Z,0
2019-05-07T00:25:32.322Z,0
2019-05-07T00:28:33.034Z,0
2019-05-07T00:31:34.373Z,0
2019-05-07T00:32:47.544Z,0
2019-05-07T00:34:00.721Z,0
2019-05-07T00:35:31.232Z,0
2019-05-07T00:37:01.768Z,0
2019-05-07T00:38:32.250Z,0
2019-05-07T00:40:02.762Z,0
2019-05-07T00:41:33.285Z,0
2019-05-07T00:44:34.307Z,0
2019-05-07T00:47:35.330Z,0
2019-05-07T00:48:48.500Z,0
2019-05-07T00:50:01.674Z,0
2019-05-07T00:51:32.196Z,0
2019-05-07T00:53:02.708Z,0
2019-05-07T00:56:03.739Z,0
2019-05-07T00:57:34.239Z,0
2019-05-07T01:00:35.267Z,0
2019-05-07T01:02:05.781Z,0
2019-05-07T01:03:36.292Z,0
2019-05-07T01:04:49.469Z,0
2019-05-07T01:06:02.649Z,0
2019-05-07T01:07:33.015Z,0
2019-05-07T01:10:34.018Z,0
2019-05-07T01:12:04.691Z,0
2019-05-07T01:15:05.724Z,0
2019-05-07T01:16:36.232Z,0
2019-05-07T01:18:06.748Z,0
2019-05-07T01:19:37.258Z,0
2019-05-07T01:20:50.435Z,0
2019-05-07T01:25:04.675Z,0
2019-05-07T01:26:35.146Z,0
2019-05-07T01:28:05.660Z,0
2019-05-07T01:29:36.185Z,0
2019-05-07T01:31:06.684Z,0
2019-05-07T01:32:37.208Z,0
2019-05-07T01:34:07.702Z,0
2019-05-07T01:35:38.236Z,0
2019-05-07T01:36:51.598Z,0
2019-05-07T01:38:04.573Z,0
2019-05-07T01:39:35.079Z,0
2019-05-07T01:41:05.590Z,0
2019-05-07T01:42:36.102Z,0
2019-05-07T01:44:06.617Z,0
2019-05-07T01:45:37.129Z,0
2019-05-07T01:47:07.643Z,0
2019-05-07T01:48:38.164Z,0
2019-05-07T01:50:08.067Z,0
2019-05-07T01:52:52.216Z,0
2019-05-07T01:54:05.390Z,0
2019-05-07T01:55:35.898Z,0
2019-05-07T01:57:06.408Z,0
2019-05-07T01:58:36.093Z,0
2019-05-07T02:00:07.447Z,0
2019-05-07T02:01:37.949Z,0
2019-05-07T02:04:38.098Z,0
2019-05-07T02:07:40.279Z,0
2019-05-07T02:08:53.047Z,0
2019-05-07T02:10:06.209Z,0
2019-05-07T02:13:07.313Z,0
2019-05-07T02:14:37.750Z,0
2019-05-07T02:16:08.343Z,0
2019-05-07T02:17:38.780Z,0
2019-05-07T02:19:09.289Z,0
2019-05-07T02:22:10.031Z,0
2019-05-07T02:23:40.826Z,0
2019-05-07T02:24:54.001Z,0
2019-05-07T02:26:07.451Z,0
2019-05-07T02:27:37.684Z,0
2019-05-07T02:29:08.198Z,0
2019-05-07T02:32:09.022Z,0
2019-05-07T02:33:39.736Z,0
2019-05-07T02:35:10.002Z,0
2019-05-07T02:36:40.763Z,0
2019-05-07T02:38:11.270Z,0
2019-05-07T02:39:41.782Z,0
2019-05-07T02:40:54.957Z,0
2019-05-07T02:42:08.154Z,0
2019-05-07T02:43:38.649Z,0
2019-05-07T02:45:09.159Z,0
2019-05-07T02:48:10.180Z,0
2019-05-07T02:49:40.715Z,0
2019-05-07T02:51:11.206Z,0
2019-05-07T02:52:41.734Z,0
2019-05-07T02:54:12.241Z,0
2019-05-07T02:56:55.789Z,0
2019-05-07T02:58:08.822Z,0
2019-05-07T02:59:39.324Z,0
2019-05-07T03:01:09.833Z,4
2019-05-07T03:02:40.035Z,4
2019-05-07T03:05:41.374Z,4
2019-05-07T03:07:11.890Z,4
2019-05-07T03:08:42.401Z,4
2019-05-07T03:10:12.916Z,8
2019-05-07T03:11:43.430Z,4
2019-05-07T03:12:56.606Z,4
2019-05-07T03:14:09.077Z,8
2019-05-07T03:15:40.299Z,8
2019-05-07T03:17:10.799Z,8
2019-05-07T03:18:41.389Z,12
2019-05-07T03:21:42.339Z,12
2019-05-07T03:23:12.857Z,16
2019-05-07T03:24:43.370Z,20
2019-05-07T03:26:13.882Z,24
2019-05-07T03:27:44.399Z,28
2019-05-07T03:28:57.560Z,32
2019-05-07T03:30:10.736Z,36
2019-05-07T03:31:41.252Z,44
2019-05-07T03:33:11.762Z,48
2019-05-07T03:34:42.278Z,60
2019-05-07T03:36:12.788Z,60
2019-05-07T03:37:43.305Z,72
2019-05-07T03:39:13.809Z,84
2019-05-07T03:40:44.335Z,88
2019-05-07T03:43:45.352Z,96
2019-05-07T03:44:58.554Z,96
2019-05-07T03:46:11.566Z,100
2019-05-07T03:49:12.059Z,108
2019-05-07T03:50:43.098Z,128
2019-05-07T03:52:13.615Z,144
2019-05-07T03:53:44.122Z,160
2019-05-07T03:55:14.637Z,164
2019-05-07T03:56:45.162Z,168
2019-05-07T03:58:15.669Z,212
2019-05-07T03:59:46.179Z,248
2019-05-07T04:02:12.245Z,292
2019-05-07T04:03:42.760Z,324
2019-05-07T04:05:13.026Z,348
2019-05-07T04:06:43.783Z,328
2019-05-07T04:08:14.291Z,376
2019-05-07T04:11:15.314Z,456
2019-05-07T04:12:45.827Z,500
2019-05-07T04:14:16.343Z,504
2019-05-07T04:15:46.849Z,452
2019-05-07T04:17:00.032Z,488
2019-05-07T04:18:13.203Z,500
2019-05-07T04:19:43.709Z,504
2019-05-07T04:21:14.227Z,516
2019-05-07T04:22:44.742Z,540
2019-05-07T04:24:15.252Z,564
2019-05-07T04:25:45.844Z,616
2019-05-07T04:27:16.274Z,776
2019-05-07T04:31:47.808Z,744
2019-05-07T04:33:00.867Z,1036
2019-05-07T04:37:15.051Z,1184
2019-05-07T04:38:45.556Z,1076
2019-05-07T04:40:16.068Z,1156
2019-05-07T04:41:46.579Z,1132
2019-05-07T04:43:17.098Z,1112
2019-05-07T04:44:47.602Z,1260
2019-05-07T04:47:48.637Z,1180
2019-05-07T04:49:01.815Z,1372
2019-05-07T04:50:14.984Z,1528
2019-05-07T04:51:45.495Z,1432
2019-05-07T04:53:16.008Z,1392
2019-05-07T04:57:47.542Z,1416
2019-05-07T04:59:18.057Z,1628
2019-05-07T05:00:48.000Z,2100
2019-05-07T05:02:19.107Z,1640
2019-05-07T05:03:49.588Z,1496
2019-05-07T05:05:02.769Z,1516
2019-05-07T05:06:15.799Z,1652
2019-05-07T05:07:46.315Z,1664
2019-05-07T05:09:16.839Z,1468
2019-05-07T05:10:47.342Z,1528
2019-05-07T05:12:17.850Z,2648
2019-05-07T05:13:48.364Z,1848
2019-05-07T05:15:18.881Z,1436
2019-05-07T05:16:49.409Z,1744
2019-05-07T05:19:50.412Z,2052
2019-05-07T05:22:16.621Z,2652
2019-05-07T05:25:17.641Z,2892
2019-05-07T05:26:48.156Z,2680
2019-05-07T05:28:18.676Z,2468
2019-05-07T05:29:49.018Z,1892
2019-05-07T05:31:19.795Z,2076
2019-05-07T05:32:50.214Z,1672
2019-05-07T05:34:20.726Z,3244
2019-05-07T05:35:51.023Z,2452
2019-05-07T05:37:04.405Z,4180
2019-05-07T05:41:18.605Z,3240
2019-05-07T05:42:49.124Z,3112
2019-05-07T05:44:19.648Z,3124
2019-05-07T05:50:21.697Z,2184
2019-05-07T05:53:05.234Z,2092
2019-05-07T05:55:48.920Z,2276
2019-05-07T05:57:19.004Z,2576
2019-05-07T06:00:20.461Z,2864
2019-05-07T06:03:21.471Z,3168
2019-05-07T06:04:51.990Z,3128
2019-05-07T06:07:53.016Z,2748
2019-05-07T06:09:06.190Z,2680
2019-05-07T06:10:19.037Z,3668
2019-05-07T06:11:49.877Z,3208
2019-05-07T06:13:20.388Z,3132
2019-05-07T06:14:50.913Z,2720
2019-05-07T06:17:51.931Z,2632
2019-05-07T06:19:22.046Z,2772
2019-05-07T06:20:52.963Z,2740
2019-05-07T06:22:23.488Z,2772
2019-05-07T06:23:53.981Z,4064
2019-05-07T06:25:07.151Z,3564
2019-05-07T06:26:20.383Z,2256
2019-05-07T06:27:50.838Z,2092
2019-05-07T06:29:21.348Z,3068
2019-05-07T06:30:51.869Z,3032
2019-05-07T06:32:22.373Z,3016
2019-05-07T06:33:52.907Z,3616
2019-05-07T06:36:53.915Z,3476
2019-05-07T06:39:54.951Z,5120
2019-05-07T06:41:08.142Z,5356
2019-05-07T06:42:21.150Z,4816
2019-05-07T06:43:51.665Z,4808
2019-05-07T06:45:22.169Z,3468
2019-05-07T06:46:52.679Z,4920
2019-05-07T06:48:23.201Z,3228
2019-05-07T06:51:24.223Z,2832
2019-05-07T06:52:54.729Z,4380
2019-05-07T06:55:55.791Z,4880
2019-05-07T06:57:08.093Z,5680
2019-05-07T06:58:22.115Z,5616
2019-05-07T07:01:23.141Z,7368
2019-05-07T07:04:24.152Z,3416
2019-05-07T07:05:54.668Z,4852
2019-05-07T07:07:25.187Z,4688
2019-05-07T07:08:55.686Z,5024
2019-05-07T07:10:26.206Z,5736
2019-05-07T07:11:56.712Z,5772
2019-05-07T07:13:09.890Z,5772
2019-05-07T07:15:53.582Z,5408
2019-05-07T07:17:24.093Z,5544
2019-05-07T07:24:56.656Z,6684
2019-05-07T07:26:27.167Z,7028
2019-05-07T07:29:10.729Z,8824
2019-05-07T07:31:54.412Z,9852
2019-05-07T07:33:24.091Z,9568
2019-05-07T07:34:55.427Z,8248
2019-05-07T07:36:25.953Z,7552
2019-05-07T07:37:56.449Z,4748
2019-05-07T07:39:26.961Z,8176
2019-05-07T07:40:57.474Z,9568
2019-05-07T07:42:29.032Z,8976
2019-05-07T07:45:11.531Z,8720
2019-05-07T07:46:24.070Z,8700
2019-05-07T07:49:25.073Z,9976
2019-05-07T07:50:56.280Z,10456
2019-05-07T07:53:57.002Z,4360
2019-05-07T07:55:27.783Z,4028
2019-05-07T07:56:58.305Z,4960
2019-05-07T07:59:59.318Z,10400
2019-05-07T08:01:12.050Z,10852
2019-05-07T08:03:56.186Z,12060
2019-05-07T08:05:26.070Z,13164
2019-05-07T08:08:27.736Z,16224
2019-05-07T08:09:58.022Z,13024
2019-05-07T08:12:59.253Z,4100
2019-05-07T08:14:29.076Z,3912
2019-05-07T08:17:13.311Z,4960
2019-05-07T08:22:58.030Z,10128
2019-05-07T08:24:28.550Z,65792
2019-05-07T08:29:00.085Z,6976
2019-05-07T08:32:01.107Z,5124
2019-05-07T08:33:14.013Z,6692
2019-05-07T08:34:27.177Z,7080
2019-05-07T08:35:57.686Z,5964
2019-05-07T08:40:29.225Z,84224
2019-05-07T08:41:59.743Z,101280
2019-05-07T08:43:30.247Z,105824
2019-05-07T08:45:00.755Z,13684
2019-05-07T08:46:31.272Z,7960
2019-05-07T08:48:01.783Z,7400
2019-05-07T08:49:14.968Z,55008
2019-05-07T08:51:58.643Z,7148
2019-05-07T08:53:29.157Z,7720
2019-05-07T08:56:30.257Z,110752
2019-05-07T08:58:00.694Z,105376
2019-05-07T09:02:32.237Z,106368
2019-05-07T09:04:02.744Z,107360
2019-05-07T09:05:15.802Z,10032
2019-05-07T09:06:28.952Z,30656
2019-05-07T09:07:59.463Z,7308
2019-05-07T09:11:00.487Z,4544
2019-05-07T09:12:31.000Z,5464
2019-05-07T09:14:01.546Z,6956
2019-05-07T09:15:32.025Z,5504
2019-05-07T09:17:02.540Z,6260
2019-05-07T09:18:33.052Z,99424
2019-05-07T09:22:29.645Z,112416
2019-05-07T09:24:00.146Z,117312
2019-05-07T09:25:30.661Z,17728
2019-05-07T09:27:01.017Z,17344
2019-05-07T09:30:02.202Z,111456
2019-05-07T09:31:32.743Z,110752
2019-05-07T09:36:04.290Z,108064
2019-05-07T09:37:17.427Z,106464
2019-05-07T09:40:01.121Z,4904
2019-05-07T09:41:31.632Z,4320
2019-05-07T09:46:03.190Z,3508
2019-05-07T09:49:04.198Z,5256
2019-05-07T09:50:34.715Z,6664
2019-05-07T09:53:18.269Z,9428
2019-05-07T09:54:31.318Z,126592
2019-05-07T09:57:32.318Z,62688
2019-05-07T09:59:02.082Z,5408
2019-05-07T10:00:33.341Z,3796
2019-05-07T10:03:34.367Z,4260
2019-05-07T10:05:04.881Z,5836
2019-05-07T10:06:35.384Z,9684
2019-05-07T10:08:05.898Z,92384
2019-05-07T10:09:19.008Z,116000
2019-05-07T10:10:32.255Z,110720
2019-05-07T10:12:02.810Z,106784
2019-05-07T10:13:33.279Z,105216
2019-05-07T10:16:34.029Z,111872
2019-05-07T10:18:04.829Z,118176
2019-05-07T10:19:35.328Z,14008
2019-05-07T10:21:05.847Z,11336
2019-05-07T10:22:36.353Z,7284
2019-05-07T10:24:06.865Z,7004
2019-05-07T10:25:20.045Z,106112
2019-05-07T10:26:33.253Z,111744
2019-05-07T10:28:03.727Z,7856
2019-05-07T10:29:34.034Z,7212
2019-05-07T10:31:04.749Z,6000
2019-05-07T10:34:05.783Z,5644
2019-05-07T10:35:36.308Z,5244
2019-05-07T10:38:37.323Z,121632
2019-05-07T10:40:07.837Z,112224
2019-05-07T10:41:20.901Z,101856
2019-05-07T10:44:04.553Z,61600
2019-05-07T10:47:05.591Z,6276
2019-05-07T10:48:36.008Z,4924
2019-05-07T10:50:06.631Z,4804
2019-05-07T10:51:37.118Z,5044
2019-05-07T10:53:07.622Z,4468
2019-05-07T10:56:08.789Z,4976
2019-05-07T10:57:21.701Z,4648
2019-05-07T10:58:34.732Z,4172
2019-05-07T11:01:35.743Z,12468
2019-05-07T11:03:06.276Z,11104
2019-05-07T11:06:07.457Z,6764
2019-05-07T11:07:37.798Z,11520
2019-05-07T11:09:08.301Z,10188
2019-05-07T11:10:38.807Z,8980
2019-05-07T11:12:09.330Z,8104
2019-05-07T11:13:22.524Z,7604
2019-05-07T11:16:06.192Z,7812
2019-05-07T11:17:36.702Z,7164
2019-05-07T11:19:07.205Z,7028
2019-05-07T11:20:37.721Z,6812
2019-05-07T11:22:08.234Z,6768
2019-05-07T11:25:09.266Z,6368
2019-05-07T11:26:39.800Z,6316
2019-05-07T11:28:10.285Z,7008
2019-05-07T11:30:36.049Z,7904
2019-05-07T11:33:37.612Z,6812
2019-05-07T11:35:08.051Z,5788
2019-05-07T11:36:38.555Z,6300
2019-05-07T11:39:39.571Z,5052
2019-05-07T11:41:10.086Z,5656
2019-05-07T11:42:40.616Z,4908
2019-05-07T11:44:11.114Z,4204
2019-05-07T11:45:24.323Z,4244
2019-05-07T11:46:37.577Z,4352
2019-05-07T11:49:38.491Z,5360
2019-05-07T11:51:08.999Z,5396
2019-05-07T11:55:40.560Z,7600
2019-05-07T11:58:41.586Z,6604
2019-05-07T12:02:38.014Z,6020
2019-05-07T12:08:40.201Z,3960
2019-05-07T12:10:10.722Z,6272
2019-05-07T12:11:41.227Z,6520
2019-05-07T12:13:11.738Z,7760
2019-05-07T12:14:42.250Z,8468
2019-05-07T12:17:25.931Z,7352
2019-05-07T12:20:09.490Z,3804
2019-05-07T12:23:10.972Z,3560
2019-05-07T12:24:41.037Z,3480
2019-05-07T12:27:42.047Z,3512
2019-05-07T12:29:12.560Z,4088
2019-05-07T12:30:43.065Z,3816
2019-05-07T12:33:26.613Z,3748
2019-05-07T12:34:39.791Z,4044
2019-05-07T12:36:10.030Z,4096
2019-05-07T12:39:11.330Z,4540
2019-05-07T12:43:42.866Z,5432
2019-05-07T12:45:13.381Z,4892
2019-05-07T12:46:43.902Z,4728
2019-05-07T12:48:14.418Z,7276
2019-05-07T12:49:27.584Z,7656
2019-05-07T12:52:11.128Z,6516
2019-05-07T12:53:41.651Z,8388
2019-05-07T12:55:12.161Z,7776
2019-05-07T12:56:42.682Z,5092
2019-05-07T12:58:13.174Z,4872
2019-05-07T12:59:43.679Z,4752
2019-05-07T13:01:14.233Z,3912
2019-05-07T13:04:15.231Z,3220
2019-05-07T13:05:28.404Z,3288
2019-05-07T13:06:41.581Z,3480
2019-05-07T13:08:12.085Z,3768
2019-05-07T13:11:13.142Z,4436
2019-05-07T13:12:43.653Z,4264
2019-05-07T13:14:14.136Z,7064
2019-05-07T13:15:44.695Z,7776
2019-05-07T13:17:15.158Z,7652
2019-05-07T13:20:16.184Z,6484
2019-05-07T13:22:42.402Z,5752
2019-05-07T13:24:13.016Z,4832
2019-05-07T13:27:13.952Z,3712
2019-05-07T13:28:44.004Z,3076
2019-05-07T13:30:14.955Z,4428
2019-05-07T13:31:45.477Z,4808
2019-05-07T13:36:17.009Z,3932
2019-05-07T13:37:30.174Z,3280
2019-05-07T13:40:13.752Z,2360
2019-05-07T13:41:44.234Z,2700
2019-05-07T13:44:45.263Z,2392
2019-05-07T13:46:15.836Z,2772
2019-05-07T13:49:16.799Z,2900
2019-05-07T13:50:47.313Z,3164
2019-05-07T13:52:17.819Z,3548
2019-05-07T13:53:31.002Z,3720
2019-05-07T13:54:44.301Z,4256
2019-05-07T13:56:14.704Z,3932
2019-05-07T14:00:46.229Z,4432
2019-05-07T14:03:47.024Z,4808
2019-05-07T14:05:17.765Z,5468
2019-05-07T14:06:48.027Z,4936
2019-05-07T14:09:31.822Z,3740
2019-05-07T14:10:45.008Z,4508
2019-05-07T14:15:16.529Z,5536
2019-05-07T14:16:47.070Z,5352
2019-05-07T14:18:17.587Z,6272
2019-05-07T14:24:19.618Z,5444
2019-05-07T14:25:33.201Z,5132
2019-05-07T14:26:45.957Z,4652
2019-05-07T14:28:16.463Z,4232
2019-05-07T14:29:46.994Z,3820
2019-05-07T14:31:17.500Z,3660
2019-05-07T14:32:48.015Z,3556
2019-05-07T14:34:18.532Z,3512
2019-05-07T14:35:49.026Z,3492
2019-05-07T14:40:20.594Z,3552
2019-05-07T14:41:33.802Z,3516
2019-05-07T14:42:46.923Z,3544
2019-05-07T14:44:17.434Z,3636
2019-05-07T14:48:48.096Z,3836
2019-05-07T14:50:19.501Z,3976
2019-05-07T14:51:49.993Z,3936
2019-05-07T14:53:20.049Z,2964
2019-05-07T14:54:51.020Z,4220
2019-05-07T14:56:21.584Z,4688
2019-05-07T14:57:34.575Z,4952
2019-05-07T15:00:18.118Z,4912
2019-05-07T15:01:48.623Z,2972
2019-05-07T15:03:19.132Z,3132
2019-05-07T15:04:49.659Z,2604
2019-05-07T15:07:50.714Z,3256
2019-05-07T15:09:21.190Z,3252
2019-05-07T15:10:51.704Z,3256
2019-05-07T15:12:22.206Z,3720
2019-05-07T15:13:35.347Z,3320
2019-05-07T15:16:18.933Z,3136
2019-05-07T15:19:19.958Z,4440
2019-05-07T15:22:20.980Z,3596
2019-05-07T15:25:22.026Z,3708
2019-05-07T15:26:52.623Z,3120
2019-05-07T15:29:36.061Z,3992
2019-05-07T15:30:49.238Z,3528
2019-05-07T15:32:19.760Z,3636
2019-05-07T15:35:20.788Z,2312
2019-05-07T15:36:51.288Z,2980
2019-05-07T15:38:21.812Z,1980
2019-05-07T15:41:22.832Z,3984
2019-05-07T15:42:53.341Z,3252
2019-05-07T15:45:36.088Z,2440
2019-05-07T15:46:50.065Z,2328
2019-05-07T15:48:20.569Z,2356
2019-05-07T15:49:51.084Z,2620
2019-05-07T15:51:21.594Z,2712
2019-05-07T15:52:52.111Z,2028
2019-05-07T15:54:22.624Z,2040
2019-05-07T15:57:23.703Z,2812
2019-05-07T16:00:24.703Z,2080
2019-05-07T16:01:37.846Z,1924
2019-05-07T16:02:51.024Z,1836
2019-05-07T16:05:52.045Z,1792
2019-05-07T16:07:22.559Z,1812
2019-05-07T16:08:53.077Z,1808
2019-05-07T16:10:23.578Z,2028
2019-05-07T16:11:54.103Z,1972
2019-05-07T16:13:24.061Z,2180
2019-05-07T16:14:55.011Z,2308
2019-05-07T16:17:38.666Z,2240
2019-05-07T16:18:51.704Z,2324
2019-05-07T16:20:22.211Z,2488
2019-05-07T16:21:52.731Z,2348
2019-05-07T16:24:53.074Z,2868
2019-05-07T16:26:24.266Z,2440
2019-05-07T16:27:54.775Z,2220
2019-05-07T16:29:25.281Z,2148
2019-05-07T16:33:39.344Z,1364
2019-05-07T16:36:23.031Z,1288
2019-05-07T16:37:53.542Z,1236
2019-05-07T16:39:24.064Z,1256
2019-05-07T16:42:25.082Z,1500
2019-05-07T16:43:55.595Z,1664
2019-05-07T16:45:26.119Z,1764
2019-05-07T16:46:56.624Z,1608
2019-05-07T16:49:40.159Z,1612
2019-05-07T16:52:23.853Z,1752
2019-05-07T16:53:54.372Z,1468
2019-05-07T16:55:24.920Z,1220
2019-05-07T16:56:55.388Z,1144
2019-05-07T16:58:25.923Z,1148
2019-05-07T17:01:26.926Z,1268
2019-05-07T17:02:57.440Z,1400
2019-05-07T17:05:40.098Z,1488
2019-05-07T17:06:54.164Z,1436
2019-05-07T17:08:24.671Z,1408
2019-05-07T17:09:55.191Z,1256
2019-05-07T17:12:56.216Z,1348
2019-05-07T17:14:26.721Z,1276
2019-05-07T17:15:57.231Z,1232
2019-05-07T17:17:27.778Z,1296
2019-05-07T17:20:28.777Z,1108
2019-05-07T17:22:54.980Z,1016
2019-05-07T17:25:56.007Z,956
2019-05-07T17:27:26.531Z,944
2019-05-07T17:28:57.033Z,932
2019-05-07T17:30:27.544Z,916
2019-05-07T17:31:58.052Z,900
2019-05-07T17:33:28.567Z,912
2019-05-07T17:34:59.089Z,912
2019-05-07T17:36:29.589Z,864
2019-05-07T17:37:42.077Z,896
2019-05-07T17:38:55.945Z,888
2019-05-07T17:41:56.972Z,780
2019-05-07T17:46:28.503Z,624
2019-05-07T17:47:59.018Z,596
2019-05-07T17:52:30.576Z,532
2019-05-07T17:53:43.729Z,516
2019-05-07T17:56:27.423Z,500
2019-05-07T17:57:57.966Z,484
2019-05-07T18:00:58.956Z,452
2019-05-07T18:02:29.473Z,428
2019-05-07T18:04:00.169Z,412
2019-05-07T18:05:30.499Z,396
2019-05-07T18:07:01.002Z,388
2019-05-07T18:09:44.627Z,364
2019-05-07T18:10:57.073Z,360
2019-05-07T18:12:28.271Z,352
2019-05-07T18:13:58.746Z,340
2019-05-07T18:15:29.263Z,336
2019-05-07T18:18:30.028Z,292
2019-05-07T18:20:00.806Z,272
2019-05-07T18:23:01.829Z,240
2019-05-07T18:24:32.339Z,220
2019-05-07T18:25:45.519Z,204
2019-05-07T18:26:58.684Z,180
2019-05-07T18:28:29.196Z,164
2019-05-07T18:29:59.718Z,140
2019-05-07T18:31:30.227Z,124
2019-05-07T18:33:00.752Z,112
2019-05-07T18:34:31.250Z,100
2019-05-07T18:36:01.763Z,88
2019-05-07T18:37:32.278Z,84
2019-05-07T18:39:02.786Z,76
2019-05-07T18:42:59.368Z,56
2019-05-07T18:44:29.876Z,48
2019-05-07T18:47:30.904Z,36
2019-05-07T18:52:02.046Z,20
2019-05-07T18:53:32.972Z,20
2019-05-07T18:55:03.467Z,16
2019-05-07T18:56:33.983Z,12
2019-05-07T18:57:47.155Z,8
2019-05-07T18:59:00.327Z,8
2019-05-07T19:02:01.373Z,8
2019-05-07T19:03:31.872Z,8
2019-05-07T19:08:03.406Z,4
2019-05-07T19:09:33.912Z,0
2019-05-07T19:11:04.420Z,4
2019-05-07T19:12:34.946Z,4
2019-05-07T19:13:48.143Z,0
2019-05-07T19:15:01.153Z,0
2019-05-07T19:18:02.016Z,0
2019-05-07T19:19:32.696Z,0
2019-05-07T19:21:03.209Z,0
2019-05-07T19:22:33.070Z,0
2019-05-07T19:25:34.733Z,0
2019-05-07T19:27:05.259Z,0
2019-05-07T19:28:35.757Z,4
2019-05-07T19:29:48.933Z,4
2019-05-07T19:31:02.010Z,4
2019-05-07T19:32:32.628Z,4
2019-05-07T19:34:03.129Z,4
2019-05-07T19:35:33.064Z,4
2019-05-07T19:37:04.160Z,0
2019-05-07T19:40:05.188Z,0
2019-05-07T19:41:35.691Z,0
2019-05-07T19:43:06.204Z,0
2019-05-07T19:44:36.728Z,4
2019-05-07T19:45:49.892Z,4
2019-05-07T19:47:03.069Z,4
2019-05-07T19:48:33.578Z,4
2019-05-07T19:50:04.104Z,4
2019-05-07T19:51:34.609Z,4
2019-05-07T19:53:05.120Z,4
2019-05-07T19:54:35.633Z,0
2019-05-07T19:56:06.144Z,0
2019-05-07T19:59:07.173Z,0
2019-05-07T20:00:37.682Z,0
2019-05-07T20:01:50.851Z,4
2019-05-07T20:03:04.034Z,4
2019-05-07T20:04:34.539Z,4
2019-05-07T20:07:35.568Z,4
2019-05-07T20:09:06.008Z,0
2019-05-07T20:10:36.607Z,0
2019-05-07T20:13:37.628Z,0
2019-05-07T20:15:08.127Z,0
2019-05-07T20:16:38.647Z,0
2019-05-07T20:17:51.818Z,0
2019-05-07T20:19:04.995Z,0
2019-05-07T20:20:35.506Z,0
2019-05-07T20:22:06.022Z,0
2019-05-07T20:23:36.610Z,0
2019-05-07T20:26:37.602Z,0
2019-05-07T20:28:08.070Z,0
2019-05-07T20:29:38.581Z,0
2019-05-07T20:32:39.607Z,0
2019-05-07T20:33:52.805Z,0
2019-05-07T20:35:05.821Z,0
2019-05-07T20:36:36.326Z,0
2019-05-07T20:39:37.357Z,0
2019-05-07T20:41:07.864Z,0
2019-05-07T20:42:38.374Z,0
2019-05-07T20:44:08.890Z,0
2019-05-07T20:45:39.399Z,0
2019-05-07T20:48:40.465Z,0
2019-05-07T20:52:37.208Z,4
2019-05-07T20:54:07.660Z,4
2019-05-07T20:57:08.680Z,0
2019-05-07T20:58:39.198Z,4
2019-05-07T21:00:09.705Z,4
2019-05-07T21:03:10.737Z,4
2019-05-07T21:04:41.250Z,4
2019-05-07T21:05:54.420Z,4
2019-05-07T21:07:07.601Z,4
2019-05-07T21:08:38.105Z,4
2019-05-07T21:11:39.133Z,4
2019-05-07T21:13:09.654Z,4
2019-05-07T21:16:10.674Z,4
2019-05-07T21:17:41.179Z,4
2019-05-07T21:19:11.698Z,4
2019-05-07T21:20:42.206Z,4
2019-05-07T21:21:55.393Z,4
2019-05-07T21:24:39.075Z,4
2019-05-07T21:26:09.620Z,4
2019-05-07T21:27:40.093Z,0
2019-05-07T21:29:10.607Z,0
2019-05-07T21:30:41.147Z,4
2019-05-07T21:32:11.635Z,0
2019-05-07T21:35:12.653Z,0
2019-05-07T21:36:43.162Z,0
2019-05-07T21:37:56.034Z,0
2019-05-07T21:39:09.524Z,0
2019-05-07T21:43:41.052Z,0
2019-05-07T21:45:11.575Z,0
2019-05-07T21:46:42.079Z,0
2019-05-07T21:48:12.592Z,0
2019-05-07T21:49:43.106Z,0
2019-05-07T21:51:13.653Z,0
2019-05-07T21:52:44.139Z,0
2019-05-07T21:53:57.313Z,0
2019-05-07T21:55:10.485Z,0
2019-05-07T21:56:41.085Z,0
2019-05-07T21:58:11.507Z,0
2019-05-07T21:59:42.023Z,0
2019-05-07T22:01:12.535Z,0
2019-05-07T22:02:43.050Z,0
2019-05-07T22:05:44.006Z,0
2019-05-07T22:07:14.589Z,0
2019-05-07T22:09:58.127Z,0
2019-05-07T22:11:11.167Z,0
2019-05-07T22:12:41.672Z,0
2019-05-07T22:15:42.700Z,0
2019-05-07T22:18:43.718Z,0
2019-05-07T22:20:14.239Z,0
2019-05-07T22:21:44.751Z,0
2019-05-07T22:23:15.253Z,0
2019-05-07T22:24:45.767Z,0
2019-05-07T22:25:58.942Z,0
2019-05-07T22:28:42.498Z,0
2019-05-07T22:30:13.117Z,0
2019-05-07T22:31:43.521Z,0
2019-05-07T22:34:44.555Z,0
2019-05-07T22:37:45.564Z,0
2019-05-07T22:39:16.077Z,0
2019-05-07T22:40:46.059Z,0
2019-05-07T22:41:59.077Z,0
2019-05-07T22:43:12.938Z,0
2019-05-07T22:44:43.467Z,0
2019-05-07T22:46:13.962Z,0
2019-05-07T22:47:44.477Z,0
2019-05-07T22:49:14.990Z,0
2019-05-07T22:50:45.499Z,0
2019-05-07T22:55:17.054Z,0
2019-05-07T22:56:47.554Z,0
2019-05-07T22:58:00.728Z,0
2019-05-07T23:00:44.414Z,0
2019-05-07T23:02:14.926Z,0
2019-05-07T23:03:45.442Z,0
2019-05-07T23:05:15.950Z,0
2019-05-07T23:06:46.046Z,0
2019-05-07T23:08:16.986Z,0
2019-05-07T23:09:47.491Z,0
2019-05-07T23:11:18.002Z,0
2019-05-07T23:14:01.756Z,0
2019-05-07T23:15:14.730Z,0
2019-05-07T23:18:15.764Z,0
2019-05-07T23:19:46.257Z,0
2019-05-07T23:21:16.776Z,0
2019-05-07T23:22:47.291Z,0
2019-05-07T23:25:48.314Z,0
2019-05-07T23:27:18.826Z,0
2019-05-07T23:28:49.034Z,0
2019-05-07T23:30:02.520Z,0
2019-05-07T23:31:15.689Z,0
2019-05-07T23:32:46.215Z,0
2019-05-07T23:34:16.071Z,0
2019-05-07T23:35:47.227Z,0
2019-05-07T23:37:17.773Z,0
2019-05-07T23:40:18.848Z,0
2019-05-07T23:41:49.269Z,0
2019-05-07T23:47:16.368Z,0
2019-05-07T23:48:46.890Z,0
2019-05-07T23:50:17.387Z,0
2019-05-07T23:51:47.908Z,0
2019-05-07T23:53:18.043Z,0
2019-05-07T23:56:19.445Z,0
2019-05-07T23:57:49.960Z,0
2019-05-07T23:59:20.499Z,0
